Time;durP1;ratioP1;P1;durP2;ratioP2;P2;SDS_P1;SDS_P2;PMS_P1;PMS_P2;Temp;Humidity;BMP_temperature;BMP_pressure;BME280_temperature;BME280_humidity;BME280_pressure;Samples;Min_cycle;Max_cycle;Signal;HPM_P1;HPM_P2
2022/08/31 00:06:02;;;;;;;;;;;;;;;;;;5057328;28;22303;-29
2022/08/31 00:08:28;;;;;;;;;;;;;;;;;;5057210;28;20011;-29
2022/08/31 00:10:54;;;;;;;;;;;;;;;;;;5075046;28;19916;-29
2022/08/31 00:13:20;;;;;;;;;;;;;;;;;;5075007;28;19913;-29
2022/08/31 00:15:46;;;;;;;;;;;;;;;;;;5074741;28;19909;-30
2022/08/31 00:18:12;;;;;;;;;;;;;;;;;;5074665;28;20016;-29
2022/08/31 00:20:38;;;;;;;;;;;;;;;;;;5074891;28;20239;-29
2022/08/31 00:23:04;;;;;;;;;;;;;;;;;;5074857;28;19912;-30
2022/08/31 00:25:30;;;;;;;;;;;;;;;;;;5074610;28;19908;-30
2022/08/31 00:27:56;;;;;;;;;;;;;;;;;;5074902;28;19912;-30
2022/08/31 00:30:23;;;;;;;;;;;;;;;;;;5074926;28;20372;-29
2022/08/31 00:32:49;;;;;;;;;;;;;;;;;;5074566;28;19973;-29
2022/08/31 00:35:15;;;;;;;;;;;;;;;;;;5057028;28;19920;-29
2022/08/31 00:37:41;;;;;;;;;;;;;;;;;;5074415;28;20322;-27
2022/08/31 00:40:07;;;;;;;;;;;;;;;;;;5074562;28;19961;-29
2022/08/31 00:42:34;;;;;;;;;;;;;;;;;;5056888;28;19916;-30
2022/08/31 00:45:00;;;;;;;;;;;;;;;;;;5074526;28;19935;-30
2022/08/31 00:47:26;;;;;;;;;;;;;;;;;;5074510;28;19909;-29
2022/08/31 00:49:52;;;;;;;;;;;;;;;;;;5056738;28;19913;-29
2022/08/31 00:52:18;;;;;;;;;;;;;;;;;;5074557;28;19913;-29
2022/08/31 00:54:43;;;;;;;;;;;;;;;;;;5056729;28;19962;-29
2022/08/31 00:57:09;;;;;;;;;;;;;;;;;;5074691;28;19947;-29
2022/08/31 00:59:35;;;;;;;;;;;;;;;;;;5077417;28;19973;-29
2022/08/31 01:02:02;;;;;;;;;;;;;;;;;;5077870;28;19920;-29
2022/08/31 01:04:28;;;;;;;;;;;;;;;;;;5078148;28;19920;-30
2022/08/31 01:06:54;;;;;;;;;;;;;;;;;;5060072;28;20327;-29
2022/08/31 01:09:20;;;;;;;;;;;;;;;;;;5060113;28;19912;-29
2022/08/31 01:11:46;;;;;;;;;;;;;;;;;;5077634;28;19909;-29
2022/08/31 01:14:12;;;;;;;;;;;;;;;;;;5078025;28;19913;-30
2022/08/31 01:16:38;;;;;;;;;;;;;;;;;;5077702;28;19955;-29
2022/08/31 01:19:04;;;;;;;;;;;;;;;;;;5077909;28;19916;-30
2022/08/31 01:21:30;;;;;;;;;;;;;;;;;;5077543;28;19924;-30
2022/08/31 01:23:56;;;;;;;;;;;;;;;;;;5077373;28;20270;-29
2022/08/31 01:26:22;;;;;;;;;;;;;;;;;;5077571;28;19909;-30
2022/08/31 01:28:48;;;;;;;;;;;;;;;;;;5059820;28;19916;-29
2022/08/31 01:31:14;;;;;;;;;;;;;;;;;;5077676;28;19995;-30
2022/08/31 01:33:40;;;;;;;;;;;;;;;;;;5077289;28;19913;-30
2022/08/31 01:36:06;;;;;;;;;;;;;;;;;;5077327;28;19924;-30
2022/08/31 01:38:32;;;;;;;;;;;;;;;;;;5077158;28;19912;-30
2022/08/31 01:40:59;;;;;;;;;;;;;;;;;;5059536;28;19923;-29
2022/08/31 01:43:25;;;;;;;;;;;;;;;;;;5076994;28;19991;-30
2022/08/31 01:45:51;;;;;;;;;;;;;;;;;;5077135;28;19966;-30
2022/08/31 01:48:17;;;;;;;;;;;;;;;;;;5077323;28;19908;-30
2022/08/31 01:50:43;;;;;;;;;;;;;;;;;;5077289;28;19912;-30
2022/08/31 01:53:09;;;;;;;;;;;;;;;;;;5076903;28;19908;-27
2022/08/31 01:55:35;;;;;;;;;;;;;;;;;;5077132;28;19916;-26
2022/08/31 01:58:01;;;;;;;;;;;;;;;;;;5077047;28;20232;-28
2022/08/31 02:00:27;;;;;;;;;;;;;;;;;;5076727;28;19916;-27
2022/08/31 02:02:53;;;;;;;;;;;;;;;;;;5076420;28;20066;-29
2022/08/31 02:05:19;;;;;;;;;;;;;;;;;;5059123;28;19927;-29
2022/08/31 02:07:45;;;;;;;;;;;;;;;;;;5076981;28;19908;-30
2022/08/31 02:10:11;;;;;;;;;;;;;;;;;;5076613;28;19954;-29
2022/08/31 02:12:37;;;;;;;;;;;;;;;;;;5076472;28;20258;-29
2022/08/31 02:15:03;;;;;;;;;;;;;;;;;;5077041;28;19923;-29
2022/08/31 02:17:29;;;;;;;;;;;;;;;;;;5076478;28;19935;-29
2022/08/31 02:19:55;;;;;;;;;;;;;;;;;;5076313;28;20286;-29
2022/08/31 02:22:21;;;;;;;;;;;;;;;;;;5076533;28;19934;-30
2022/08/31 02:24:47;;;;;;;;;;;;;;;;;;5076245;28;19912;-29
2022/08/31 02:27:13;;;;;;;;;;;;;;;;;;5076537;28;19909;-29
2022/08/31 02:29:39;;;;;;;;;;;;;;;;;;5076236;28;19955;-29
2022/08/31 02:32:05;;;;;;;;;;;;;;;;;;5058484;28;19913;-30
2022/08/31 02:34:31;;;;;;;;;;;;;;;;;;5076105;28;19916;-29
2022/08/31 02:36:57;;;;;;;;;;;;;;;;;;5076358;28;19909;-29
2022/08/31 02:39:23;;;;;;;;;;;;;;;;;;5076182;28;20046;-29
2022/08/31 02:41:49;;;;;;;;;;;;;;;;;;5075918;28;19999;-29
2022/08/31 02:44:15;;;;;;;;;;;;;;;;;;5076251;28;19912;-29
2022/08/31 02:46:41;;;;;;;;;;;;;;;;;;5075860;28;19916;-29
2022/08/31 02:49:07;;;;;;;;;;;;;;;;;;5075758;28;19923;-29
2022/08/31 02:51:33;;;;;;;;;;;;;;;;;;5058177;28;20003;-30
2022/08/31 02:53:59;;;;;;;;;;;;;;;;;;5075738;28;20292;-29
2022/08/31 02:56:25;;;;;;;;;;;;;;;;;;5075677;28;19912;-29
2022/08/31 02:58:53;;;;;;;;;;;;;;;;;;5075635;28;20260;-29
2022/08/31 03:01:19;;;;;;;;;;;;;;;;;;5075530;28;19913;-30
2022/08/31 03:03:45;;;;;;;;;;;;;;;;;;5054398;28;19933;-29
2022/08/31 03:06:11;;;;;;;;;;;;;;;;;;5055831;28;19925;-30
2022/08/31 03:08:38;;;;;;;;;;;;;;;;;;5055567;28;20007;-29
2022/08/31 03:11:04;;;;;;;;;;;;;;;;;;5055779;28;19917;-29
2022/08/31 03:13:30;;;;;;;;;;;;;;;;;;5055391;28;19919;-29
2022/08/31 03:15:56;;;;;;;;;;;;;;;;;;5055422;28;19931;-29
2022/08/31 03:18:22;;;;;;;;;;;;;;;;;;5054369;28;19999;-29
2022/08/31 03:20:48;;;;;;;;;;;;;;;;;;5054901;28;19909;-30
2022/08/31 03:23:14;;;;;;;;;;;;;;;;;;5055211;28;19939;-30
2022/08/31 03:25:40;;;;;;;;;;;;;;;;;;5055841;28;20247;-30
2022/08/31 03:28:06;;;;;;;;;;;;;;;;;;5055241;28;19931;-29
2022/08/31 03:30:32;;;;;;;;;;;;;;;;;;5055198;28;19913;-29
2022/08/31 03:32:58;;;;;;;;;;;;;;;;;;5055003;28;19951;-29
2022/08/31 03:35:24;;;;;;;;;;;;;;;;;;5055106;28;20016;-30
2022/08/31 03:37:50;;;;;;;;;;;;;;;;;;5055240;28;19913;-30
2022/08/31 03:40:16;;;;;;;;;;;;;;;;;;5055027;28;19909;-29
2022/08/31 03:42:43;;;;;;;;;;;;;;;;;;5055237;28;19908;-30
2022/08/31 03:45:09;;;;;;;;;;;;;;;;;;5055226;28;19917;-29
2022/08/31 03:47:35;;;;;;;;;;;;;;;;;;5055198;28;20225;-30
2022/08/31 03:50:02;;;;;;;;;;;;;;;;;;5054908;28;19917;-30
2022/08/31 03:52:28;;;;;;;;;;;;;;;;;;5054876;28;19909;-30
2022/08/31 03:54:54;;;;;;;;;;;;;;;;;;5055103;28;19919;-30
2022/08/31 03:57:20;;;;;;;;;;;;;;;;;;5053727;28;20347;-29
2022/08/31 03:59:46;;;;;;;;;;;;;;;;;;5054647;28;19963;-29
2022/08/31 04:02:12;;;;;;;;;;;;;;;;;;5055852;28;19944;-29
2022/08/31 04:04:38;;;;;;;;;;;;;;;;;;5075145;28;19916;-29
2022/08/31 04:07:04;;;;;;;;;;;;;;;;;;5074942;28;19909;-29
2022/08/31 04:09:30;;;;;;;;;;;;;;;;;;5074648;28;19913;-30
2022/08/31 04:11:56;;;;;;;;;;;;;;;;;;5074618;28;19915;-29
2022/08/31 04:14:22;;;;;;;;;;;;;;;;;;5074659;28;20359;-30
2022/08/31 04:16:48;;;;;;;;;;;;;;;;;;5057041;28;19940;-30
2022/08/31 04:19:15;;;;;;;;;;;;;;;;;;5074644;28;19974;-30
2022/08/31 04:21:42;;;;;;;;;;;;;;;;;;5074645;28;19912;-29
2022/08/31 04:24:08;;;;;;;;;;;;;;;;;;5074655;28;19912;-29
2022/08/31 04:26:34;;;;;;;;;;;;;;;;;;5074624;28;19913;-30
2022/08/31 04:29:00;;;;;;;;;;;;;;;;;;5074570;28;20252;-30
2022/08/31 04:31:26;;;;;;;;;;;;;;;;;;5074547;28;19913;-29
2022/08/31 04:33:55;;;;;;;;;;;;;;;;;;5058562;28;19913;-30
2022/08/31 04:36:21;;;;;;;;;;;;;;;;;;5078584;28;20251;-29
2022/08/31 04:38:47;;;;;;;;;;;;;;;;;;5078339;28;19917;-29
2022/08/31 04:41:13;;;;;;;;;;;;;;;;;;5060665;28;19913;-29
2022/08/31 04:43:39;;;;;;;;;;;;;;;;;;5078159;28;19965;-29
2022/08/31 04:46:05;;;;;;;;;;;;;;;;;;5060284;28;20297;-29
2022/08/31 04:48:31;;;;;;;;;;;;;;;;;;5077834;28;19913;-29
2022/08/31 04:50:57;;;;;;;;;;;;;;;;;;5077715;28;19963;-29
2022/08/31 04:53:23;;;;;;;;;;;;;;;;;;5077636;28;19970;-30
2022/08/31 04:55:49;;;;;;;;;;;;;;;;;;5077709;28;19912;-29
2022/08/31 04:58:16;;;;;;;;;;;;;;;;;;5077497;28;19923;-30
2022/08/31 05:00:42;;;;;;;;;;;;;;;;;;5077858;28;20237;-29
2022/08/31 05:03:08;;;;;;;;;;;;;;;;;;5056219;28;20011;-29
2022/08/31 05:05:34;;;;;;;;;;;;;;;;;;5056446;28;20377;-30
2022/08/31 05:08:00;;;;;;;;;;;;;;;;;;5057520;28;19919;-29
2022/08/31 05:10:26;;;;;;;;;;;;;;;;;;5057361;28;19916;-30
2022/08/31 05:12:52;;;;;;;;;;;;;;;;;;5057589;28;19909;-30
2022/08/31 05:15:18;;;;;;;;;;;;;;;;;;5057247;28;19912;-30
2022/08/31 05:17:44;;;;;;;;;;;;;;;;;;5057428;28;19920;-29
2022/08/31 05:20:10;;;;;;;;;;;;;;;;;;5057497;28;20001;-30
2022/08/31 05:22:37;;;;;;;;;;;;;;;;;;5057100;28;20251;-30
2022/08/31 05:25:05;;;;;;;;;;;;;;;;;;5057083;28;19917;-30
2022/08/31 05:27:31;;;;;;;;;;;;;;;;;;5057375;28;20012;-29
2022/08/31 05:29:57;;;;;;;;;;;;;;;;;;5056012;28;19913;-27
2022/08/31 05:32:23;;;;;;;;;;;;;;;;;;5057207;28;19913;-30
2022/08/31 05:34:50;;;;;;;;;;;;;;;;;;5056849;28;19913;-29
2022/08/31 05:37:16;;;;;;;;;;;;;;;;;;5057046;28;19988;-29
2022/08/31 05:39:42;;;;;;;;;;;;;;;;;;5056695;28;20339;-29
2022/08/31 05:42:08;;;;;;;;;;;;;;;;;;5056767;28;20268;-29
2022/08/31 05:44:34;;;;;;;;;;;;;;;;;;5056310;28;19912;-30
2022/08/31 05:47:00;;;;;;;;;;;;;;;;;;5056814;28;19912;-29
2022/08/31 05:49:26;;;;;;;;;;;;;;;;;;5056752;28;19947;-29
2022/08/31 05:51:52;;;;;;;;;;;;;;;;;;5055673;28;19920;-29
2022/08/31 05:54:18;;;;;;;;;;;;;;;;;;5056938;28;19909;-30
2022/08/31 05:56:44;;;;;;;;;;;;;;;;;;5056912;28;19913;-30
2022/08/31 05:59:11;;;;;;;;;;;;;;;;;;5056728;28;19913;-30
2022/08/31 06:01:37;;;;;;;;;;;;;;;;;;5055585;28;20011;-29
2022/08/31 06:04:03;;;;;;;;;;;;;;;;;;5055247;28;19968;-29
2022/08/31 06:06:29;;;;;;;;;;;;;;;;;;5056639;28;19909;-29
2022/08/31 06:08:55;;;;;;;;;;;;;;;;;;5056310;28;19913;-29
2022/08/31 06:11:21;;;;;;;;;;;;;;;;;;5056248;28;19917;-29
2022/08/31 06:13:47;;;;;;;;;;;;;;;;;;5056022;28;19909;-29
2022/08/31 06:16:13;;;;;;;;;;;;;;;;;;5056136;28;19920;-30
2022/08/31 06:18:39;;;;;;;;;;;;;;;;;;5056231;28;19923;-29
2022/08/31 06:21:09;;;;;;;;;;;;;;;;;;5056022;28;19980;-30
2022/08/31 06:23:35;;;;;;;;;;;;;;;;;;5055928;28;20332;-30
2022/08/31 06:26:01;;;;;;;;;;;;;;;;;;5055872;28;19920;-30
2022/08/31 06:28:29;;;;;;;;;;;;;;;;;;5055888;28;19999;-29
2022/08/31 06:30:54;;;;;;;;;;;;;;;;;;5055682;28;19908;-30
2022/08/31 06:33:21;;;;;;;;;;;;;;;;;;5055696;28;20259;-30
2022/08/31 06:35:47;;;;;;;;;;;;;;;;;;5055604;28;20354;-30
2022/08/31 06:38:13;;;;;;;;;;;;;;;;;;5055637;28;19913;-29
2022/08/31 06:40:39;;;;;;;;;;;;;;;;;;5055799;28;20007;-30
2022/08/31 06:43:06;;;;;;;;;;;;;;;;;;5054596;28;20335;-30
2022/08/31 06:45:32;;;;;;;;;;;;;;;;;;5055609;28;19913;-30
2022/08/31 06:47:59;;;;;;;;;;;;;;;;;;5055534;28;20004;-29
2022/08/31 06:50:25;;;;;;;;;;;;;;;;;;5055565;28;19940;-30
2022/08/31 06:52:51;;;;;;;;;;;;;;;;;;5054555;28;19966;-30
2022/08/31 06:55:17;;;;;;;;;;;;;;;;;;5054246;28;19913;-29
2022/08/31 06:57:43;;;;;;;;;;;;;;;;;;5055262;28;19973;-36
2022/08/31 07:00:09;;;;;;;;;;;;;;;;;;5055262;28;20298;-30
2022/08/31 07:02:35;;;;;;;;;;;;;;;;;;5053919;28;19943;-29
2022/08/31 07:05:01;;;;;;;;;;;;;;;;;;5055424;28;19916;-29
2022/08/31 07:07:27;;;;;;;;;;;;;;;;;;5055386;28;19935;-29
2022/08/31 07:09:53;;;;;;;;;;;;;;;;;;5055074;28;19928;-29
2022/08/31 07:12:19;;;;;;;;;;;;;;;;;;5055036;28;19971;-30
2022/08/31 07:14:45;;;;;;;;;;;;;;;;;;5055101;28;19917;-30
2022/08/31 07:17:11;;;;;;;;;;;;;;;;;;5055118;28;19913;-29
2022/08/31 07:19:37;;;;;;;;;;;;;;;;;;5055256;28;20347;-29
2022/08/31 07:22:03;;;;;;;;;;;;;;;;;;5055106;28;19913;-30
2022/08/31 07:24:29;;;;;;;;;;;;;;;;;;5055118;28;20363;-29
2022/08/31 07:26:56;;;;;;;;;;;;;;;;;;5054660;28;19949;-30
2022/08/31 07:29:22;;;;;;;;;;;;;;;;;;5054656;28;19919;-30
2022/08/31 07:31:49;;;;;;;;;;;;;;;;;;5053599;28;19912;-30
2022/08/31 07:34:15;;;;;;;;;;;;;;;;;;5055054;28;20351;-29
2022/08/31 07:42:10;;;;;;;;;;;;;;;;;;5054775;28;19928;-29
2022/08/31 07:44:36;;;;;;;;;;;;;;;;;;5054993;28;19916;-29
2022/08/31 07:47:02;;;;;;;;;;;;;;;;;;5054618;28;19919;-30
2022/08/31 07:49:29;;;;;;;;;;;;;;;;;;5054603;28;20248;-29
2022/08/31 07:51:56;;;;;;;;;;;;;;;;;;5054665;28;19913;-30
2022/08/31 07:54:22;;;;;;;;;;;;;;;;;;5054562;28;20336;-29
2022/08/31 07:56:52;;;;;;;;;;;;;;;;;;5054749;28;19920;-29
2022/08/31 07:59:18;;;;;;;;;;;;;;;;;;5054775;28;20013;-29
2022/08/31 08:01:44;;;;;;;;;;;;;;;;;;5054499;28;19960;-29
2022/08/31 08:04:12;;;;;;;;;;;;;;;;;;5071699;28;19920;-29
2022/08/31 08:06:38;;;;;;;;;;;;;;;;;;5074493;28;20340;-30
2022/08/31 08:09:07;;;;;;;;;;;;;;;;;;5078755;28;19920;-30
2022/08/31 08:11:34;;;;;;;;;;;;;;;;;;5078574;28;19908;-31
2022/08/31 08:14:00;;;;;;;;;;;;;;;;;;5078411;28;19916;-30
2022/08/31 08:16:26;;;;;;;;;;;;;;;;;;5079325;28;19943;-30
2022/08/31 08:18:52;;;;;;;;;;;;;;;;;;5078454;28;19916;-30
2022/08/31 08:21:18;;;;;;;;;;;;;;;;;;5078643;28;19912;-30
2022/08/31 08:23:44;;;;;;;;;;;;;;;;;;5078334;28;19999;-30
2022/08/31 08:26:10;;;;;;;;;;;;;;;;;;5078347;28;19925;-30
2022/08/31 08:28:36;;;;;;;;;;;;;;;;;;5078176;28;19909;-29
2022/08/31 08:31:02;;;;;;;;;;;;;;;;;;5077996;28;19912;-29
2022/08/31 08:33:28;;;;;;;;;;;;;;;;;;5078262;28;19971;-28
2022/08/31 08:35:55;;;;;;;;;;;;;;;;;;5077879;28;19923;-30
2022/08/31 08:38:21;;;;;;;;;;;;;;;;;;5078167;28;20314;-30
2022/08/31 08:40:50;;;;;;;;;;;;;;;;;;5078485;28;19912;-30
2022/08/31 08:43:16;;;;;;;;;;;;;;;;;;5078007;28;20247;-30
2022/08/31 08:45:42;;;;;;;;;;;;;;;;;;5077813;28;19962;-30
2022/08/31 08:48:11;;;;;;;;;;;;;;;;;;5077838;28;19920;-30
2022/08/31 08:50:37;;;;;;;;;;;;;;;;;;5077665;28;19908;-29
2022/08/31 08:53:04;;;;;;;;;;;;;;;;;;5077617;28;19917;-29
2022/08/31 08:55:30;;;;;;;;;;;;;;;;;;5077558;28;19909;-30
2022/08/31 08:57:56;;;;;;;;;;;;;;;;;;5077496;28;20055;-30
2022/08/31 09:00:23;;;;;;;;;;;;;;;;;;5077730;28;20260;-29
2022/08/31 09:02:50;;;;;;;;;;;;;;;;;;5077204;28;19939;-29
2022/08/31 09:05:16;;;;;;;;;;;;;;;;;;5077790;28;20298;-29
2022/08/31 09:07:43;;;;;;;;;;;;;;;;;;5077452;28;19912;-29
2022/08/31 09:10:09;;;;;;;;;;;;;;;;;;5077542;28;19912;-29
2022/08/31 09:12:35;;;;;;;;;;;;;;;;;;5059580;28;19982;-30
2022/08/31 09:15:01;;;;;;;;;;;;;;;;;;5077267;28;19986;-29
2022/08/31 09:17:27;;;;;;;;;;;;;;;;;;5077332;28;19908;-29
2022/08/31 09:20:03;;;;;;;;;;;;;;;;;;5076453;28;19928;-29
2022/08/31 09:22:29;;;;;;;;;;;;;;;;;;5077098;28;19920;-30
2022/08/31 09:24:58;;;;;;;;;;;;;;;;;;5078012;28;19913;-30
2022/08/31 09:27:26;;;;;;;;;;;;;;;;;;5059853;28;19913;-29
2022/08/31 09:29:52;;;;;;;;;;;;;;;;;;5077299;28;19951;-29
2022/08/31 09:32:21;;;;;;;;;;;;;;;;;;5059699;28;20017;-30
2022/08/31 09:34:47;;;;;;;;;;;;;;;;;;5077469;28;20266;-29
2022/08/31 09:37:15;;;;;;;;;;;;;;;;;;5077132;28;20058;-30
2022/08/31 09:39:41;;;;;;;;;;;;;;;;;;5077020;28;19921;-30
2022/08/31 09:42:07;;;;;;;;;;;;;;;;;;5077087;28;19916;-30
2022/08/31 09:44:33;;;;;;;;;;;;;;;;;;5077270;28;19923;-30
2022/08/31 09:47:01;;;;;;;;;;;;;;;;;;5077000;28;19966;-30
2022/08/31 09:49:27;;;;;;;;;;;;;;;;;;5059147;28;20003;-29
2022/08/31 09:51:53;;;;;;;;;;;;;;;;;;5058975;28;20374;-29
2022/08/31 09:57:04;;;;;;;;;;;;;;;;;;5076728;28;19981;-30
2022/08/31 09:59:30;;;;;;;;;;;;;;;;;;5076951;28;19913;-37
2022/08/31 10:01:58;;;;;;;;;;;;;;;;;;5059210;28;19970;-29
2022/08/31 10:04:25;;;;;;;;;;;;;;;;;;5076413;28;19989;-29
2022/08/31 10:06:51;;;;;;;;;;;;;;;;;;5076923;28;20232;-29
2022/08/31 10:09:17;;;;;;;;;;;;;;;;;;5076535;28;19916;-30
2022/08/31 10:11:46;;;;;;;;;;;;;;;;;;5076466;28;19912;-30
2022/08/31 10:14:14;;;;;;;;;;;;;;;;;;5076408;28;19950;-30
2022/08/31 10:16:41;;;;;;;;;;;;;;;;;;5076360;28;20376;-29
2022/08/31 10:19:08;;;;;;;;;;;;;;;;;;5076956;28;19970;-29
2022/08/31 10:21:34;;;;;;;;;;;;;;;;;;5076394;28;19931;-30
2022/08/31 10:24:02;;;;;;;;;;;;;;;;;;5076505;28;19913;-30
2022/08/31 10:26:35;;;;;;;;;;;;;;;;;;5058598;28;20350;-30
2022/08/31 10:29:02;;;;;;;;;;;;;;;;;;5076501;28;19916;-30
2022/08/31 10:31:30;;;;;;;;;;;;;;;;;;5075060;28;19966;-29
2022/08/31 10:36:40;;;;;;;;;;;;;;;;;;5076041;28;19959;-30
2022/08/31 10:39:06;;;;;;;;;;;;;;;;;;5075842;28;19951;-29
2022/08/31 10:41:32;;;;;;;;;;;;;;;;;;5058216;28;19919;-30
2022/08/31 10:44:00;;;;;;;;;;;;;;;;;;5075906;28;19947;-29
2022/08/31 10:46:29;;;;;;;;;;;;;;;;;;5075828;28;20363;-29
2022/08/31 10:48:56;;;;;;;;;;;;;;;;;;5075728;28;19913;-29
2022/08/31 10:51:22;;;;;;;;;;;;;;;;;;5075785;28;20026;-30
2022/08/31 10:53:51;;;;;;;;;;;;;;;;;;5075592;28;20006;-30
2022/08/31 10:56:17;;;;;;;;;;;;;;;;;;5058031;28;20356;-29
2022/08/31 10:58:43;;;;;;;;;;;;;;;;;;5075650;28;19986;-29
2022/08/31 11:01:09;;;;;;;;;;;;;;;;;;5075668;28;19924;-29
2022/08/31 11:03:35;;;;;;;;;;;;;;;;;;5075475;28;19924;-30
2022/08/31 11:06:01;;;;;;;;;;;;;;;;;;5075610;28;19916;-29
2022/08/31 11:08:27;;;;;;;;;;;;;;;;;;5057880;28;19959;-30
2022/08/31 11:10:53;;;;;;;;;;;;;;;;;;5075491;28;19935;-29
2022/08/31 11:13:19;;;;;;;;;;;;;;;;;;5075557;28;19923;-30
2022/08/31 11:15:46;;;;;;;;;;;;;;;;;;5075584;28;19912;-30
2022/08/31 11:18:12;;;;;;;;;;;;;;;;;;5075357;28;20335;-30
2022/08/31 11:20:38;;;;;;;;;;;;;;;;;;5075282;28;19912;-30
2022/08/31 11:23:05;;;;;;;;;;;;;;;;;;5075110;28;20351;-29
2022/08/31 11:25:31;;;;;;;;;;;;;;;;;;5057539;28;19919;-29
2022/08/31 11:27:56;;;;;;;;;;;;;;;;;;5075428;28;19913;-30
2022/08/31 11:30:27;;;;;;;;;;;;;;;;;;5075163;28;20366;-30
2022/08/31 11:32:53;;;;;;;;;;;;;;;;;;5075275;28;20255;-29
2022/08/31 11:35:19;;;;;;;;;;;;;;;;;;5075078;28;19909;-29
2022/08/31 11:37:51;;;;;;;;;;;;;;;;;;5075108;28;19912;-29
2022/08/31 11:40:18;;;;;;;;;;;;;;;;;;5075393;28;19917;-29
2022/08/31 11:42:44;;;;;;;;;;;;;;;;;;5057072;28;19908;-30
2022/08/31 11:45:10;;;;;;;;;;;;;;;;;;5057383;28;19999;-30
2022/08/31 11:47:36;;;;;;;;;;;;;;;;;;5075041;28;19909;-30
2022/08/31 11:50:03;;;;;;;;;;;;;;;;;;5075053;28;19912;-30
2022/08/31 11:52:30;;;;;;;;;;;;;;;;;;5075233;28;19912;-29
2022/08/31 11:54:56;;;;;;;;;;;;;;;;;;5075029;28;19916;-29
2022/08/31 11:57:23;;;;;;;;;;;;;;;;;;5074967;28;19909;-29
2022/08/31 11:59:49;;;;;;;;;;;;;;;;;;5074736;28;19980;-29
2022/08/31 12:02:15;;;;;;;;;;;;;;;;;;5074494;28;19962;-30
2022/08/31 12:04:42;;;;;;;;;;;;;;;;;;5074923;28;19966;-29
2022/08/31 12:07:09;;;;;;;;;;;;;;;;;;5075053;28;19912;-29
2022/08/31 12:09:35;;;;;;;;;;;;;;;;;;5074720;28;19909;-29
2022/08/31 12:12:06;;;;;;;;;;;;;;;;;;5074754;28;19917;-30
2022/08/31 12:14:32;;;;;;;;;;;;;;;;;;5074833;28;19909;-29
2022/08/31 12:16:58;;;;;;;;;;;;;;;;;;5074580;28;19912;-29
2022/08/31 12:24:54;;;;;;;;;;;;;;;;;;5074735;28;19928;-29
2022/08/31 12:27:20;;;;;;;;;;;;;;;;;;5074743;28;19991;-30
2022/08/31 12:29:46;;;;;;;;;;;;;;;;;;5074634;28;19944;-29
2022/08/31 12:32:12;;;;;;;;;;;;;;;;;;5056813;28;19912;-30
2022/08/31 12:34:38;;;;;;;;;;;;;;;;;;5056694;28;19915;-27
2022/08/31 12:37:04;;;;;;;;;;;;;;;;;;5074544;28;20221;-29
2022/08/31 12:39:31;;;;;;;;;;;;;;;;;;5074398;28;20399;-30
2022/08/31 12:41:57;;;;;;;;;;;;;;;;;;5074658;28;20289;-30
2022/08/31 12:44:23;;;;;;;;;;;;;;;;;;5074654;28;19934;-30
2022/08/31 12:46:49;;;;;;;;;;;;;;;;;;5074268;28;19912;-29
2022/08/31 12:49:15;;;;;;;;;;;;;;;;;;5074619;28;19916;-30
2022/08/31 12:51:41;;;;;;;;;;;;;;;;;;5074251;28;19936;-30
2022/08/31 12:54:07;;;;;;;;;;;;;;;;;;5075095;28;19920;-30
2022/08/31 12:56:33;;;;;;;;;;;;;;;;;;5077787;28;20028;-29
2022/08/31 12:58:59;;;;;;;;;;;;;;;;;;5077782;28;20003;-29
2022/08/31 13:01:25;;;;;;;;;;;;;;;;;;5077972;28;19943;-29
2022/08/31 13:03:52;;;;;;;;;;;;;;;;;;5077459;28;20287;-30
2022/08/31 13:06:18;;;;;;;;;;;;;;;;;;5077574;28;19954;-29
2022/08/31 13:08:43;;;;;;;;;;;;;;;;;;5077549;28;19912;-30
2022/08/31 13:11:09;;;;;;;;;;;;;;;;;;5077519;28;19904;-29
2022/08/31 13:13:35;;;;;;;;;;;;;;;;;;5077455;28;19917;-29
2022/08/31 13:16:06;;;;;;;;;;;;;;;;;;5059778;28;20003;-29
2022/08/31 13:18:32;;;;;;;;;;;;;;;;;;5078392;28;19923;-30
2022/08/31 13:21:04;;;;;;;;;;;;;;;;;;5077644;28;20286;-30
2022/08/31 13:23:30;;;;;;;;;;;;;;;;;;5077162;28;19912;-30
2022/08/31 13:25:56;;;;;;;;;;;;;;;;;;5077307;28;19961;-29
2022/08/31 13:28:24;;;;;;;;;;;;;;;;;;5077540;28;20365;-29
2022/08/31 13:30:50;;;;;;;;;;;;;;;;;;5077281;28;20070;-30
2022/08/31 13:33:16;;;;;;;;;;;;;;;;;;5077006;28;19944;-30
2022/08/31 13:35:48;;;;;;;;;;;;;;;;;;5077070;28;20007;-29
2022/08/31 13:38:15;;;;;;;;;;;;;;;;;;5077473;28;19912;-29
2022/08/31 13:40:42;;;;;;;;;;;;;;;;;;5077338;28;20007;-29
2022/08/31 13:43:08;;;;;;;;;;;;;;;;;;5077026;28;20286;-29
2022/08/31 13:45:34;;;;;;;;;;;;;;;;;;5077008;28;19962;-30
2022/08/31 13:48:00;;;;;;;;;;;;;;;;;;5076846;28;19909;-30
2022/08/31 13:50:27;;;;;;;;;;;;;;;;;;5076845;28;19912;-29
2022/08/31 13:52:53;;;;;;;;;;;;;;;;;;5076851;28;19912;-30
2022/08/31 13:55:19;;;;;;;;;;;;;;;;;;5076617;28;19909;-30
2022/08/31 13:57:45;;;;;;;;;;;;;;;;;;5059197;28;19923;-29
2022/08/31 14:00:11;;;;;;;;;;;;;;;;;;5059118;28;19925;-30
2022/08/31 14:02:38;;;;;;;;;;;;;;;;;;5076393;28;19974;-30
2022/08/31 14:05:04;;;;;;;;;;;;;;;;;;5058589;28;19916;-30
2022/08/31 14:07:30;;;;;;;;;;;;;;;;;;5076416;28;20275;-30
2022/08/31 14:09:56;;;;;;;;;;;;;;;;;;5076852;28;20262;-30
2022/08/31 14:12:33;;;;;;;;;;;;;;;;;;5076514;28;19991;-30
2022/08/31 14:14:59;;;;;;;;;;;;;;;;;;5058879;28;19942;-29
2022/08/31 14:17:25;;;;;;;;;;;;;;;;;;5076684;28;19912;-29
2022/08/31 14:19:51;;;;;;;;;;;;;;;;;;5076280;28;20410;-29
2022/08/31 14:22:24;;;;;;;;;;;;;;;;;;5058555;28;19916;-29
2022/08/31 14:24:50;;;;;;;;;;;;;;;;;;5076261;28;19909;-29
2022/08/31 14:27:16;;;;;;;;;;;;;;;;;;5058544;28;19917;-30
2022/08/31 14:29:42;;;;;;;;;;;;;;;;;;5076435;28;19916;-30
2022/08/31 14:32:08;;;;;;;;;;;;;;;;;;5076257;28;19978;-30
2022/08/31 14:34:34;;;;;;;;;;;;;;;;;;5058422;28;19915;-29
2022/08/31 14:37:02;;;;;;;;;;;;;;;;;;5076261;28;20408;-29
2022/08/31 14:39:29;;;;;;;;;;;;;;;;;;5075830;28;19917;-29
2022/08/31 14:41:55;;;;;;;;;;;;;;;;;;5058280;28;19909;-30
2022/08/31 14:44:21;;;;;;;;;;;;;;;;;;5075970;28;19916;-30
2022/08/31 14:46:47;;;;;;;;;;;;;;;;;;5075910;28;19999;-30
2022/08/31 14:49:14;;;;;;;;;;;;;;;;;;5075780;28;19959;-29
2022/08/31 14:51:42;;;;;;;;;;;;;;;;;;5075795;28;20014;-29
2022/08/31 14:54:08;;;;;;;;;;;;;;;;;;5075560;28;19919;-30
2022/08/31 14:56:34;;;;;;;;;;;;;;;;;;5075593;28;19908;-30
2022/08/31 14:59:00;;;;;;;;;;;;;;;;;;5075611;28;19985;-30
2022/08/31 15:01:26;;;;;;;;;;;;;;;;;;5075974;28;19908;-29
2022/08/31 15:03:52;;;;;;;;;;;;;;;;;;5075250;28;20290;-28
2022/08/31 15:06:19;;;;;;;;;;;;;;;;;;5075831;28;20275;-29
2022/08/31 15:08:45;;;;;;;;;;;;;;;;;;5075650;28;20255;-30
2022/08/31 15:11:11;;;;;;;;;;;;;;;;;;5075674;28;19932;-29
2022/08/31 15:13:38;;;;;;;;;;;;;;;;;;5075414;28;19913;-29
2022/08/31 15:16:04;;;;;;;;;;;;;;;;;;5075185;28;19909;-30
2022/08/31 15:18:30;;;;;;;;;;;;;;;;;;5074620;28;19923;-28
2022/08/31 15:20:57;;;;;;;;;;;;;;;;;;5057807;28;19962;-29
2022/08/31 15:23:22;;;;;;;;;;;;;;;;;;5075482;28;19916;-30
2022/08/31 15:25:49;;;;;;;;;;;;;;;;;;5075528;28;19909;-30
2022/08/31 15:28:15;;;;;;;;;;;;;;;;;;5075280;28;19912;-29
2022/08/31 15:30:41;;;;;;;;;;;;;;;;;;5075551;28;19928;-29
2022/08/31 15:33:08;;;;;;;;;;;;;;;;;;5075394;28;19912;-29
2022/08/31 15:35:40;;;;;;;;;;;;;;;;;;5075085;28;19909;-30
2022/08/31 15:38:07;;;;;;;;;;;;;;;;;;5075029;28;19925;-29
2022/08/31 15:40:36;;;;;;;;;;;;;;;;;;5075107;28;19938;-29
2022/08/31 15:43:02;;;;;;;;;;;;;;;;;;5075446;28;19984;-30
2022/08/31 15:45:29;;;;;;;;;;;;;;;;;;5075327;28;19909;-29
2022/08/31 15:50:40;;;;;;;;;;;;;;;;;;5075184;28;20352;-30
2022/08/31 15:53:08;;;;;;;;;;;;;;;;;;5074961;28;19913;-29
2022/08/31 15:55:34;;;;;;;;;;;;;;;;;;5057426;28;19909;-29
2022/08/31 15:58:02;;;;;;;;;;;;;;;;;;5074960;28;19919;-30
2022/08/31 16:00:31;;;;;;;;;;;;;;;;;;5057165;28;19913;-30
2022/08/31 16:03:00;;;;;;;;;;;;;;;;;;5074502;28;19916;-29
2022/08/31 16:05:37;;;;;;;;;;;;;;;;;;5074823;28;19958;-29
2022/08/31 16:08:04;;;;;;;;;;;;;;;;;;5075226;28;19927;-30
2022/08/31 16:10:30;;;;;;;;;;;;;;;;;;5075130;28;19969;-29
2022/08/31 16:12:56;;;;;;;;;;;;;;;;;;5074521;28;19913;-30
2022/08/31 16:15:22;;;;;;;;;;;;;;;;;;5057087;28;19909;-29
2022/08/31 16:17:49;;;;;;;;;;;;;;;;;;5074911;28;19923;-29
2022/08/31 16:20:15;;;;;;;;;;;;;;;;;;5074654;28;19912;-29
2022/08/31 16:22:41;;;;;;;;;;;;;;;;;;5074368;28;19916;-29
2022/08/31 16:25:13;;;;;;;;;;;;;;;;;;5074762;28;19935;-28
2022/08/31 16:27:39;;;;;;;;;;;;;;;;;;5075061;28;19913;-30
2022/08/31 16:30:05;;;;;;;;;;;;;;;;;;5060982;28;19986;-29
2022/08/31 16:32:31;;;;;;;;;;;;;;;;;;5078666;28;20374;-28
2022/08/31 16:34:58;;;;;;;;;;;;;;;;;;5078370;28;19912;-29
2022/08/31 16:37:24;;;;;;;;;;;;;;;;;;5078437;28;19915;-29
2022/08/31 16:39:50;;;;;;;;;;;;;;;;;;5078606;28;20351;-30
2022/08/31 16:42:16;;;;;;;;;;;;;;;;;;5078570;28;19908;-29
2022/08/31 16:44:43;;;;;;;;;;;;;;;;;;5078291;28;19912;-30
2022/08/31 16:47:09;;;;;;;;;;;;;;;;;;5078223;28;19967;-29
2022/08/31 16:49:37;;;;;;;;;;;;;;;;;;5078113;28;20347;-29
2022/08/31 16:52:04;;;;;;;;;;;;;;;;;;5077921;28;19917;-29
2022/08/31 16:54:31;;;;;;;;;;;;;;;;;;5078081;28;20351;-29
2022/08/31 16:56:57;;;;;;;;;;;;;;;;;;5077951;28;19912;-29
2022/08/31 16:59:23;;;;;;;;;;;;;;;;;;5078016;28;20282;-29
2022/08/31 17:01:49;;;;;;;;;;;;;;;;;;5077886;28;19912;-29
2022/08/31 17:04:15;;;;;;;;;;;;;;;;;;5078317;28;19924;-29